createdAt,value
2023-07-03T00:02:22.752Z,14.85
2023-07-03T00:04:50.259Z,11.32
2023-07-03T00:07:17.788Z,10.75
2023-07-03T00:09:45.841Z,12.48
2023-07-03T00:12:13.109Z,10.15
2023-07-03T00:14:40.465Z,8.10
2023-07-03T00:17:10.833Z,9.57
2023-07-03T00:19:38.127Z,9.80
2023-07-03T00:22:05.765Z,14.10
2023-07-03T00:24:33.208Z,12.40
2023-07-03T00:27:01.194Z,7.60
2023-07-03T00:29:32.934Z,14.35
2023-07-03T00:32:01.419Z,13.00
2023-07-03T00:34:29.240Z,12.18
2023-07-03T00:36:56.509Z,19.77
2023-07-03T00:39:23.831Z,12.35
2023-07-03T00:41:51.421Z,16.05
2023-07-03T00:44:20.079Z,17.13
2023-07-03T00:46:50.342Z,17.20
2023-07-03T00:49:19.273Z,11.40
2023-07-03T00:51:51.657Z,12.07
2023-07-03T00:56:46.233Z,13.45
2023-07-03T00:59:14.426Z,16.17
2023-07-03T01:02:18.003Z,13.07
2023-07-03T01:05:05.251Z,12.13
2023-07-03T01:07:35.743Z,13.02
2023-07-03T01:10:09.618Z,14.95
2023-07-03T01:12:40.766Z,12.45
2023-07-03T01:15:11.161Z,10.90
2023-07-03T01:17:42.126Z,7.50
2023-07-03T01:20:14.479Z,9.25
2023-07-03T01:25:22.157Z,9.77
2023-07-03T01:27:53.928Z,15.75
2023-07-03T01:30:22.567Z,14.30
2023-07-03T01:32:53.959Z,15.02
2023-07-03T01:35:23.853Z,16.23
2023-07-03T01:37:53.500Z,13.80
2023-07-03T01:40:24.617Z,15.05
2023-07-03T01:42:54.540Z,11.63
2023-07-03T01:45:21.970Z,11.13
2023-07-03T01:47:49.246Z,14.00
2023-07-03T01:50:24.342Z,10.95
2023-07-03T01:52:57.478Z,10.40
2023-07-03T01:55:37.123Z,14.00
2023-07-03T01:58:13.263Z,11.15
2023-07-03T02:00:46.445Z,13.05
2023-07-03T02:03:52.830Z,14.02
2023-07-03T02:06:25.178Z,12.10
2023-07-03T02:11:23.143Z,13.20
2023-07-03T02:13:54.776Z,15.68
2023-07-03T02:16:28.903Z,14.25
2023-07-03T02:18:57.498Z,9.55
2023-07-03T02:21:24.691Z,9.02
2023-07-03T02:23:52.677Z,12.48
2023-07-03T02:26:19.862Z,17.23
2023-07-03T02:28:47.024Z,13.93
2023-07-03T02:31:14.293Z,15.45
2023-07-03T02:33:41.498Z,15.18
2023-07-03T02:36:08.818Z,13.30
2023-07-03T02:38:36.150Z,15.43
2023-07-03T02:41:04.279Z,9.50
2023-07-03T02:43:34.036Z,15.27
2023-07-03T02:46:05.615Z,11.27
2023-07-03T02:48:33.266Z,9.25
2023-07-03T02:51:00.852Z,14.30
2023-07-03T02:53:28.859Z,16.25
2023-07-03T02:56:04.110Z,14.60
2023-07-03T02:58:31.457Z,11.10
2023-07-03T03:00:58.776Z,16.40
2023-07-03T03:03:26.515Z,12.80
2023-07-03T03:05:53.962Z,12.88
2023-07-03T03:08:23.216Z,12.25
2023-07-03T03:10:52.246Z,11.45
2023-07-03T03:13:19.616Z,13.77
2023-07-03T03:15:47.611Z,15.45
2023-07-03T03:18:14.816Z,12.05
2023-07-03T03:20:42.140Z,10.70
2023-07-03T03:23:10.996Z,11.60
2023-07-03T03:25:38.149Z,9.77
2023-07-03T03:28:05.555Z,8.13
2023-07-03T03:30:33.147Z,10.88
2023-07-03T03:33:00.361Z,14.63
2023-07-03T03:35:27.590Z,10.32
2023-07-03T03:37:54.842Z,13.20
2023-07-03T03:40:22.024Z,11.13
2023-07-03T03:42:49.200Z,13.98
2023-07-03T03:45:17.528Z,17.35
2023-07-03T03:47:48.574Z,15.13
2023-07-03T03:50:16.906Z,18.90
2023-07-03T03:52:44.179Z,10.20
2023-07-03T03:55:11.441Z,12.52
2023-07-03T03:57:38.659Z,15.25
2023-07-03T04:00:16.649Z,14.77
2023-07-03T04:02:44.775Z,13.23
2023-07-03T04:05:12.995Z,11.30
2023-07-03T04:07:40.631Z,12.80
2023-07-03T04:10:09.440Z,12.93
2023-07-03T04:12:36.655Z,11.73
2023-07-03T04:15:04.852Z,6.38
2023-07-03T04:17:32.160Z,9.60
2023-07-03T04:19:59.444Z,12.63
2023-07-03T04:22:27.667Z,13.13
2023-07-03T04:24:54.845Z,10.73
2023-07-03T04:27:22.400Z,11.65
2023-07-03T04:29:49.558Z,8.98
2023-07-03T04:32:16.716Z,12.15
2023-07-03T04:34:43.991Z,10.35
2023-07-03T04:37:11.152Z,18.85
2023-07-03T04:39:38.330Z,6.43
2023-07-03T04:42:05.791Z,11.93
2023-07-03T04:44:34.757Z,11.13
2023-07-03T04:47:06.682Z,18.35
2023-07-03T04:49:33.965Z,10.07
2023-07-03T04:52:01.364Z,11.27
2023-07-03T04:54:29.028Z,12.32
2023-07-03T04:56:57.362Z,10.00
2023-07-03T04:59:24.723Z,17.58
2023-07-03T05:01:52.093Z,10.43
2023-07-03T05:04:19.466Z,15.10
2023-07-03T05:06:47.485Z,9.27
2023-07-03T05:09:15.177Z,15.98
2023-07-03T05:11:42.546Z,11.98
2023-07-03T05:14:09.733Z,16.40
2023-07-03T05:16:36.906Z,11.13
2023-07-03T05:19:04.173Z,14.23
2023-07-03T05:21:31.647Z,7.88
2023-07-03T05:23:58.947Z,14.63
2023-07-03T05:26:26.131Z,16.42
2023-07-03T05:28:53.266Z,12.68
2023-07-03T05:31:23.622Z,12.40
2023-07-03T05:33:54.116Z,13.82
2023-07-03T05:36:21.408Z,9.50
2023-07-03T05:38:48.652Z,13.40
2023-07-03T05:41:16.468Z,12.60
2023-07-03T05:43:43.748Z,11.02
2023-07-03T05:46:11.143Z,16.50
2023-07-03T05:48:38.266Z,17.08
2023-07-03T05:51:05.472Z,9.65
2023-07-03T05:53:32.644Z,14.73
2023-07-03T05:56:00.086Z,9.57
2023-07-03T05:58:27.978Z,11.95
2023-07-03T06:00:55.703Z,17.08
2023-07-03T06:03:25.938Z,13.60
2023-07-03T06:05:53.624Z,12.10
2023-07-03T06:08:21.303Z,13.50
2023-07-03T06:10:48.593Z,14.50
2023-07-03T06:13:16.255Z,15.70
2023-07-03T06:15:43.667Z,9.73
2023-07-03T06:18:11.252Z,10.75
2023-07-03T06:20:39.113Z,12.65
2023-07-03T06:23:06.654Z,13.25
2023-07-03T06:25:34.067Z,11.90
2023-07-03T06:28:01.476Z,9.95
2023-07-03T06:30:28.804Z,9.80
2023-07-03T06:32:56.194Z,7.32
2023-07-03T06:35:23.725Z,14.07
2023-07-03T06:37:54.138Z,11.43
2023-07-03T06:40:21.407Z,9.73
2023-07-03T06:42:48.728Z,11.80
2023-07-03T06:45:19.510Z,8.30
2023-07-03T06:47:46.869Z,13.98
2023-07-03T06:50:14.069Z,11.52
2023-07-03T06:52:42.630Z,7.32
2023-07-03T06:55:10.423Z,6.55
2023-07-03T06:57:37.751Z,6.97
2023-07-03T07:00:07.165Z,7.70
2023-07-03T07:02:34.614Z,11.30
2023-07-03T07:05:03.350Z,5.22
2023-07-03T07:07:31.176Z,7.78
2023-07-03T07:09:58.450Z,6.47
2023-07-03T07:12:25.992Z,14.30
2023-07-03T07:14:53.152Z,4.28
2023-07-03T07:17:20.376Z,8.45
2023-07-03T07:19:47.876Z,10.77
2023-07-03T07:22:15.056Z,6.60
2023-07-03T07:24:42.251Z,12.25
2023-07-03T07:27:09.508Z,4.38
2023-07-03T07:29:37.190Z,5.85
2023-07-03T07:32:04.815Z,5.10
2023-07-03T07:34:32.063Z,4.40
2023-07-03T07:36:59.675Z,3.55
2023-07-03T07:39:28.181Z,7.75
2023-07-03T07:41:56.888Z,8.35
2023-07-03T07:44:24.244Z,6.07
2023-07-03T07:46:51.544Z,5.65
2023-07-03T07:49:18.987Z,4.93
2023-07-03T07:51:46.164Z,7.78
2023-07-03T07:54:13.660Z,3.10
2023-07-03T07:56:41.326Z,5.07
2023-07-03T07:59:08.553Z,3.13
2023-07-03T08:01:35.966Z,2.10
2023-07-03T08:04:03.296Z,3.92
2023-07-03T08:06:30.760Z,3.22
2023-07-03T08:08:58.028Z,7.40
2023-07-03T08:11:29.819Z,4.63
2023-07-03T08:13:57.190Z,6.38
2023-07-03T08:16:24.481Z,3.30
2023-07-03T08:18:51.911Z,4.18
2023-07-03T08:21:19.176Z,5.43
2023-07-03T08:23:46.406Z,3.92
2023-07-03T08:26:22.807Z,2.97
2023-07-03T08:28:50.084Z,3.90
2023-07-03T08:31:18.321Z,4.15
2023-07-03T08:33:46.107Z,2.65
2023-07-03T08:38:43.455Z,5.68
2023-07-03T08:41:14.712Z,4.95
2023-07-03T08:43:48.250Z,5.63
2023-07-03T08:46:20.865Z,7.22
2023-07-03T08:48:52.477Z,3.30
2023-07-03T08:51:23.329Z,4.15
2023-07-03T08:53:54.853Z,3.85
2023-07-03T08:56:27.568Z,4.03
2023-07-03T08:58:57.220Z,5.57
2023-07-03T09:01:49.332Z,4.35
2023-07-03T09:04:55.170Z,5.45
2023-07-03T09:07:39.734Z,5.30
2023-07-03T09:10:34.501Z,3.47
2023-07-03T09:13:15.808Z,3.08
2023-07-03T09:16:19.713Z,3.72
2023-07-03T09:19:00.685Z,4.72
2023-07-03T09:21:31.279Z,4.90
2023-07-03T09:24:17.868Z,5.45
2023-07-03T09:26:51.757Z,5.68
2023-07-03T09:29:19.502Z,8.07
2023-07-03T09:31:46.859Z,7.93
2023-07-03T09:34:14.843Z,5.50
2023-07-03T09:36:45.068Z,7.82
2023-07-03T09:39:15.072Z,5.93
2023-07-03T09:41:42.901Z,6.93
2023-07-03T09:44:14.935Z,5.70
2023-07-03T09:46:43.102Z,7.72
2023-07-03T09:49:22.553Z,7.00
2023-07-03T09:51:55.338Z,5.55
2023-07-03T09:54:26.972Z,4.60
2023-07-03T09:56:54.391Z,7.40
2023-07-03T09:59:25.161Z,4.47
2023-07-03T10:07:07.570Z,3.60
2023-07-03T10:15:02.380Z,6.00
2023-07-03T10:17:37.561Z,6.30
2023-07-03T10:20:11.211Z,11.05
2023-07-03T10:22:41.588Z,6.45
2023-07-03T10:25:16.646Z,6.53
2023-07-03T10:27:44.200Z,4.57
2023-07-03T10:30:16.613Z,8.18
2023-07-03T10:32:49.378Z,6.10
2023-07-03T10:35:24.021Z,5.78
2023-07-03T10:38:24.678Z,8.05
2023-07-03T10:40:59.777Z,7.78
2023-07-03T10:43:32.405Z,7.50
2023-07-03T10:46:01.453Z,6.57
2023-07-03T10:48:34.525Z,6.07
2023-07-03T10:51:09.680Z,9.75
2023-07-03T10:53:54.225Z,6.22
2023-07-03T10:56:33.295Z,5.07
2023-07-03T10:59:14.971Z,5.40
2023-07-03T11:02:09.930Z,3.17
2023-07-03T11:05:01.023Z,5.88
2023-07-03T11:07:49.237Z,4.15
2023-07-03T11:10:22.374Z,8.10
2023-07-03T11:13:29.425Z,7.82
2023-07-03T11:16:05.642Z,5.18
2023-07-03T11:24:35.359Z,7.82
2023-07-03T11:29:57.061Z,5.55
2023-07-03T11:32:24.470Z,7.88
2023-07-03T11:40:37.400Z,5.22
2023-07-03T11:45:59.358Z,7.63
2023-07-03T11:48:29.475Z,6.60
2023-07-03T11:51:02.919Z,6.07
2023-07-03T11:53:34.732Z,8.10
2023-07-03T11:56:04.296Z,4.45
2023-07-03T11:58:34.440Z,5.30
2023-07-03T12:01:32.042Z,4.78
2023-07-03T12:04:02.157Z,4.65
2023-07-03T12:06:41.928Z,6.35
2023-07-03T12:09:31.953Z,9.43
2023-07-03T12:12:01.873Z,6.32
2023-07-03T12:14:41.604Z,7.25
2023-07-03T12:17:21.817Z,4.10
2023-07-03T12:19:50.325Z,7.55
2023-07-03T12:22:21.904Z,6.35
2023-07-03T12:24:49.301Z,4.20
2023-07-03T12:27:24.009Z,6.95
2023-07-03T12:29:52.103Z,6.50
2023-07-03T12:32:34.133Z,7.88
2023-07-03T12:35:16.957Z,3.80
2023-07-03T12:37:54.788Z,5.20
2023-07-03T12:40:23.522Z,5.55
2023-07-03T12:43:02.470Z,5.47
2023-07-03T18:20:37.809Z,4.05
2023-07-03T18:23:07.147Z,6.22
2023-07-03T18:25:37.453Z,5.13
2023-07-03T18:28:04.771Z,4.90
2023-07-03T18:30:32.424Z,4.10
2023-07-03T18:32:59.795Z,3.92
2023-07-03T18:35:27.073Z,3.47
2023-07-03T18:37:54.276Z,5.00
2023-07-03T18:40:21.486Z,3.30
2023-07-03T18:42:48.754Z,6.20
2023-07-03T18:45:16.082Z,4.00
2023-07-03T18:47:45.461Z,5.22
2023-07-03T18:50:14.394Z,6.93
2023-07-03T18:52:45.756Z,3.83
2023-07-03T18:55:13.539Z,6.22
2023-07-03T18:57:46.625Z,4.10
2023-07-03T19:00:35.033Z,4.68
2023-07-03T19:03:02.845Z,5.00
2023-07-03T19:05:31.847Z,2.15
2023-07-03T19:08:00.107Z,4.43
2023-07-03T19:10:27.337Z,2.72
2023-07-03T19:12:54.828Z,4.53
2023-07-03T19:15:22.001Z,2.97
2023-07-03T19:17:49.439Z,5.07
2023-07-03T19:20:20.121Z,4.45
2023-07-03T19:22:50.708Z,3.72
2023-07-03T19:25:18.437Z,6.82
2023-07-03T19:27:49.393Z,5.45
2023-07-03T19:30:16.741Z,5.13
2023-07-03T19:32:44.458Z,5.90
2023-07-03T19:35:12.327Z,4.15
2023-07-03T19:37:39.550Z,6.20
2023-07-03T19:40:13.222Z,6.13
2023-07-03T19:42:41.232Z,6.68
2023-07-03T19:45:09.366Z,6.88
2023-07-03T19:47:37.201Z,4.22
2023-07-03T19:50:10.866Z,3.55
2023-07-03T19:52:41.237Z,3.05
2023-07-03T19:55:09.869Z,2.58
2023-07-03T19:57:37.147Z,3.47
2023-07-03T20:00:05.915Z,9.10
2023-07-03T20:02:35.118Z,4.20
2023-07-03T20:05:02.785Z,5.65
2023-07-03T20:07:30.319Z,7.72
2023-07-03T20:09:57.514Z,4.13
2023-07-03T20:12:25.001Z,8.07
2023-07-03T20:14:52.273Z,7.00
2023-07-03T20:17:19.499Z,3.78
2023-07-03T20:19:46.630Z,3.63
2023-07-03T20:22:14.951Z,7.22
2023-07-03T20:24:42.262Z,5.47
2023-07-03T20:27:09.556Z,5.28
2023-07-03T20:29:50.839Z,3.25
2023-07-03T20:32:18.744Z,7.55
2023-07-03T20:34:51.200Z,5.68
2023-07-03T20:37:18.493Z,2.53
2023-07-03T20:39:47.298Z,6.25
2023-07-03T20:42:15.105Z,4.15
2023-07-03T20:44:46.476Z,6.68
2023-07-03T20:47:13.902Z,6.07
2023-07-03T20:49:42.654Z,8.25
2023-07-03T20:52:10.598Z,6.82
2023-07-03T20:54:44.191Z,5.40
2023-07-03T20:57:11.809Z,5.47
2023-07-03T20:59:39.381Z,7.60
2023-07-03T21:02:07.225Z,7.38
2023-07-03T21:04:36.081Z,5.90
2023-07-03T21:07:03.416Z,6.38
2023-07-03T21:09:30.666Z,10.45
2023-07-03T21:11:59.112Z,5.78
2023-07-03T21:14:26.468Z,6.45
2023-07-03T21:16:53.756Z,7.25
2023-07-03T21:19:20.970Z,6.15
2023-07-03T21:21:48.484Z,5.45
2023-07-03T21:24:15.665Z,8.23
2023-07-03T21:26:42.897Z,5.80
2023-07-03T21:29:10.550Z,8.98
2023-07-03T21:31:38.341Z,11.18
2023-07-03T21:34:06.130Z,8.23
2023-07-03T21:36:33.916Z,5.22
2023-07-03T21:39:05.289Z,3.58
2023-07-03T21:41:35.113Z,7.33
2023-07-03T21:44:09.658Z,5.65
2023-07-03T21:46:37.128Z,5.75
2023-07-03T21:49:04.755Z,5.30
2023-07-03T21:51:32.088Z,4.78
2023-07-03T21:53:59.759Z,9.77
2023-07-03T21:56:30.373Z,8.27
2023-07-03T21:59:06.781Z,5.43
2023-07-03T22:01:41.192Z,7.07
2023-07-03T22:04:09.898Z,6.72
2023-07-03T22:06:37.425Z,5.30
2023-07-03T22:09:04.842Z,8.73
2023-07-03T22:11:32.380Z,6.95
2023-07-03T22:14:04.721Z,6.72
2023-07-03T22:18:59.070Z,6.55
2023-07-03T22:21:26.231Z,9.18
2023-07-03T22:23:53.441Z,6.75
2023-07-03T22:26:21.984Z,4.68
2023-07-03T22:28:49.324Z,6.93
2023-07-03T22:31:17.114Z,4.05
2023-07-03T22:33:44.453Z,3.90
2023-07-03T22:36:13.679Z,4.05
2023-07-03T22:38:40.983Z,3.67
2023-07-03T22:41:10.596Z,7.25
2023-07-03T22:43:38.108Z,7.93
2023-07-03T22:46:06.844Z,7.18
2023-07-03T22:48:34.416Z,8.43
2023-07-03T22:51:06.384Z,7.43
2023-07-03T22:53:38.023Z,6.88
2023-07-03T22:56:06.855Z,14.60
2023-07-03T22:58:34.439Z,6.75
2023-07-03T23:01:08.314Z,3.45
2023-07-03T23:03:36.064Z,8.30
2023-07-03T23:06:05.420Z,9.75
2023-07-03T23:08:33.030Z,13.15
2023-07-03T23:11:01.084Z,10.98
2023-07-03T23:13:28.299Z,5.15
2023-07-03T23:16:01.709Z,7.45
2023-07-03T23:18:32.408Z,3.55
2023-07-03T23:21:07.576Z,8.43
2023-07-03T23:23:35.205Z,5.68
2023-07-03T23:26:08.214Z,5.30
2023-07-03T23:28:36.452Z,4.60
2023-07-03T23:31:08.510Z,7.15
2023-07-03T23:33:36.703Z,8.27
2023-07-03T23:36:10.954Z,5.47
2023-07-03T23:38:40.683Z,5.07
2023-07-03T23:41:09.549Z,9.10
2023-07-03T23:43:38.258Z,5.22
2023-07-03T23:46:09.084Z,7.05
2023-07-03T23:48:37.504Z,8.93
2023-07-03T23:51:08.481Z,8.35
2023-07-03T23:53:37.822Z,4.00
2023-07-03T23:56:07.335Z,5.78
2023-07-03T23:58:36.947Z,5.60
